createdAt,value
2023-04-22T00:00:42.519Z,0.00
2023-04-22T00:01:42.232Z,0.00
2023-04-22T00:02:41.650Z,0.00
2023-04-22T00:03:42.786Z,0.00
2023-04-22T00:04:42.461Z,0.00
2023-04-22T00:05:42.280Z,0.00
2023-04-22T00:06:42.169Z,0.00
2023-04-22T00:07:42.137Z,0.00
2023-04-22T00:08:42.411Z,0.00
2023-04-22T00:09:42.380Z,0.00
2023-04-22T00:10:42.129Z,0.00
2023-04-22T00:11:42.386Z,0.00
2023-04-22T00:12:42.385Z,0.00
2023-04-22T00:13:42.091Z,0.00
2023-04-22T00:14:42.103Z,0.00
2023-04-22T00:15:42.162Z,0.00
2023-04-22T00:16:42.346Z,0.00
2023-04-22T00:17:42.074Z,0.00
2023-04-22T00:18:42.302Z,0.00
2023-04-22T00:19:42.030Z,0.00
2023-04-22T00:20:42.324Z,0.00
2023-04-22T00:21:42.267Z,0.00
2023-04-22T00:22:42.260Z,0.00
2023-04-22T00:23:42.237Z,0.00
2023-04-22T00:24:41.977Z,0.00
2023-04-22T00:25:41.972Z,0.00
2023-04-22T00:26:41.961Z,0.00
2023-04-22T00:27:41.925Z,0.00
2023-04-22T00:28:42.208Z,0.00
2023-04-22T00:29:42.176Z,0.00
2023-04-22T00:30:42.194Z,0.00
2023-04-22T00:31:42.169Z,0.00
2023-04-22T00:32:42.191Z,0.00
2023-04-22T00:33:42.128Z,0.00
2023-04-22T00:34:42.134Z,0.00
2023-04-22T00:35:42.134Z,0.00
2023-04-22T00:36:41.848Z,0.00
2023-04-22T00:37:41.812Z,0.00
2023-04-22T00:38:42.086Z,0.00
2023-04-22T00:39:42.448Z,0.00
2023-04-22T00:40:41.797Z,0.00
2023-04-22T00:41:41.790Z,0.00
2023-04-22T00:42:41.760Z,0.00
2023-04-22T00:43:42.027Z,0.00
2023-04-22T00:44:41.759Z,0.00
2023-04-22T00:45:41.742Z,0.00
2023-04-22T00:46:42.042Z,0.00
2023-04-22T00:47:41.762Z,0.00
2023-04-22T00:48:41.720Z,0.00
2023-04-22T00:49:42.046Z,0.00
2023-04-22T00:50:41.694Z,0.00
2023-04-22T00:51:41.683Z,0.00
2023-04-22T00:52:41.669Z,0.00
2023-04-22T00:53:41.662Z,0.00
2023-04-22T00:54:41.907Z,0.00
2023-04-22T00:55:41.895Z,0.00
2023-04-22T00:56:41.631Z,0.00
2023-04-22T00:57:41.901Z,0.00
2023-04-22T00:58:41.607Z,0.00
2023-04-22T00:59:42.156Z,0.00
2023-04-22T01:00:41.634Z,0.00
2023-04-22T01:01:41.841Z,0.00
2023-04-22T01:02:41.722Z,0.00
2023-04-22T01:03:42.022Z,0.00
2023-04-22T01:04:41.545Z,0.00
2023-04-22T01:05:41.542Z,0.00
2023-04-22T01:06:41.522Z,0.00
2023-04-22T01:07:41.497Z,0.00
2023-04-22T01:08:41.763Z,0.00
2023-04-22T01:09:42.017Z,0.00
2023-04-22T01:10:41.733Z,0.00
2023-04-22T01:11:41.462Z,0.00
2023-04-22T01:12:41.443Z,0.00
2023-04-22T01:13:41.466Z,0.00
2023-04-22T01:14:41.454Z,0.00
2023-04-22T01:15:41.680Z,0.00
2023-04-22T01:16:41.712Z,0.00
2023-04-22T01:17:41.732Z,0.00
2023-04-22T01:18:41.669Z,0.00
2023-04-22T01:19:42.229Z,0.00
2023-04-22T01:20:41.379Z,0.00
2023-04-22T01:21:41.355Z,0.00
2023-04-22T01:22:41.333Z,0.00
2023-04-22T01:23:41.588Z,0.00
2023-04-22T01:24:41.584Z,0.00
2023-04-22T01:25:41.317Z,0.00
2023-04-22T01:26:41.571Z,0.00
2023-04-22T01:27:41.574Z,0.00
2023-04-22T01:28:41.288Z,0.00
2023-04-22T01:29:41.982Z,0.00
2023-04-22T01:30:41.521Z,0.00
2023-04-22T01:31:41.276Z,0.00
2023-04-22T01:32:41.632Z,0.00
2023-04-22T01:33:41.227Z,0.00
2023-04-22T01:34:41.223Z,0.00
2023-04-22T01:35:41.245Z,0.00
2023-04-22T01:36:41.194Z,0.00
2023-04-22T01:37:41.188Z,0.00
2023-04-22T01:38:41.189Z,0.00
2023-04-22T01:39:41.688Z,0.00
2023-04-22T01:40:40.466Z,0.00
2023-04-22T01:41:41.148Z,0.00
2023-04-22T01:42:41.118Z,0.00
2023-04-22T01:43:40.438Z,0.00
2023-04-22T01:44:40.432Z,0.00
2023-04-22T01:45:41.126Z,0.00
2023-04-22T01:46:41.058Z,0.00
2023-04-22T01:47:40.418Z,0.00
2023-04-22T01:48:40.381Z,0.00
2023-04-22T01:49:40.701Z,0.00
2023-04-22T01:50:41.040Z,0.00
2023-04-22T01:51:40.358Z,0.00
2023-04-22T01:52:41.000Z,0.00
2023-04-22T01:53:41.277Z,0.00
2023-04-22T01:54:40.296Z,0.00
2023-04-22T01:55:41.259Z,0.00
2023-04-22T01:56:40.284Z,0.00
2023-04-22T01:57:40.297Z,0.00
2023-04-22T01:58:40.959Z,0.00
2023-04-22T01:59:41.217Z,0.00
2023-04-22T02:00:40.929Z,0.00
2023-04-22T02:01:40.291Z,0.00
2023-04-22T02:02:41.004Z,0.00
2023-04-22T02:03:40.938Z,0.00
2023-04-22T02:04:40.962Z,0.00
2023-04-22T02:05:40.906Z,0.00
2023-04-22T02:06:40.863Z,0.00
2023-04-22T02:07:40.844Z,0.00
2023-04-22T02:08:40.168Z,0.00
2023-04-22T02:09:40.463Z,0.00
2023-04-22T02:10:40.121Z,0.00
2023-04-22T02:11:41.082Z,0.00
2023-04-22T02:12:40.772Z,0.00
2023-04-22T02:13:40.792Z,0.00
2023-04-22T02:14:40.087Z,0.00
2023-04-22T02:15:40.790Z,0.00
2023-04-22T02:16:40.068Z,0.00
2023-04-22T02:17:40.731Z,0.00
2023-04-22T02:18:40.728Z,0.00
2023-04-22T02:19:41.134Z,0.00
2023-04-22T02:20:40.028Z,0.00
2023-04-22T02:21:40.014Z,0.00
2023-04-22T02:22:40.669Z,0.00
2023-04-22T02:23:40.021Z,0.00
2023-04-22T02:24:40.662Z,0.00
2023-04-22T02:25:40.663Z,0.00
2023-04-22T02:26:39.955Z,0.00
2023-04-22T02:27:39.959Z,0.00
2023-04-22T02:28:40.619Z,0.00
2023-04-22T02:29:40.938Z,0.00
2023-04-22T02:30:39.905Z,0.00
2023-04-22T02:31:40.655Z,0.00
2023-04-22T02:32:39.955Z,0.00
2023-04-22T02:33:39.948Z,0.00
2023-04-22T02:34:40.556Z,0.00
2023-04-22T02:35:40.543Z,0.00
2023-04-22T02:36:40.539Z,0.00
2023-04-22T02:37:39.843Z,0.00
2023-04-22T02:38:40.519Z,0.00
2023-04-22T02:39:39.992Z,0.00
2023-04-22T02:40:40.498Z,0.00
2023-04-22T02:41:40.492Z,0.00
2023-04-22T02:42:40.453Z,0.00
2023-04-22T02:43:40.466Z,0.00
2023-04-22T02:44:39.773Z,0.00
2023-04-22T02:45:40.448Z,0.00
2023-04-22T02:46:39.806Z,0.00
2023-04-22T02:47:39.794Z,0.00
2023-04-22T02:48:39.718Z,0.00
2023-04-22T02:49:40.018Z,0.00
2023-04-22T02:50:40.388Z,0.00
2023-04-22T02:51:39.719Z,0.00
2023-04-22T02:52:39.692Z,0.00
2023-04-22T02:53:40.352Z,0.00
2023-04-22T02:54:40.346Z,0.00
2023-04-22T02:55:40.331Z,0.00
2023-04-22T02:56:40.324Z,0.00
2023-04-22T02:57:40.294Z,0.00
2023-04-22T02:58:40.302Z,0.00
2023-04-22T02:59:40.661Z,0.00
2023-04-22T03:00:39.605Z,0.00
2023-04-22T03:01:40.290Z,0.00
2023-04-22T03:02:39.774Z,0.00
2023-04-22T03:03:40.550Z,0.00
2023-04-22T03:04:39.551Z,0.00
2023-04-22T03:05:39.552Z,0.00
2023-04-22T03:06:39.520Z,0.00
2023-04-22T03:07:39.540Z,0.00
2023-04-22T03:08:40.198Z,0.00
2023-04-22T03:09:39.804Z,0.00
2023-04-22T03:10:40.168Z,0.00
2023-04-22T03:11:40.161Z,0.00
2023-04-22T03:12:40.140Z,0.00
2023-04-22T03:13:40.153Z,0.00
2023-04-22T03:14:39.431Z,0.00
2023-04-22T03:15:40.117Z,0.00
2023-04-22T03:16:40.196Z,0.00
2023-04-22T03:17:40.137Z,0.00
2023-04-22T03:18:40.083Z,0.00
2023-04-22T03:19:40.332Z,0.00
2023-04-22T03:20:39.372Z,0.00
2023-04-22T03:21:40.059Z,0.00
2023-04-22T03:22:40.043Z,0.00
2023-04-22T03:23:39.345Z,0.00
2023-04-22T03:24:39.340Z,0.00
2023-04-22T03:25:39.316Z,0.00
2023-04-22T03:26:40.000Z,0.00
2023-04-22T03:27:39.974Z,0.00
2023-04-22T03:28:39.294Z,0.00
2023-04-22T03:29:39.453Z,0.00
2023-04-22T03:30:39.264Z,0.00
2023-04-22T03:31:39.269Z,0.00
2023-04-22T03:32:39.941Z,0.00
2023-04-22T03:33:39.238Z,0.00
2023-04-22T03:34:39.210Z,0.00
2023-04-22T03:35:39.902Z,0.00
2023-04-22T03:36:39.898Z,0.00
2023-04-22T03:37:39.878Z,0.00
2023-04-22T03:38:39.868Z,0.00
2023-04-22T03:39:40.215Z,0.00
2023-04-22T03:40:39.165Z,0.00
2023-04-22T03:41:39.166Z,0.00
2023-04-22T03:42:39.829Z,0.00
2023-04-22T03:43:39.834Z,0.00
2023-04-22T03:44:39.800Z,0.00
2023-04-22T03:45:39.163Z,0.00
2023-04-22T03:46:39.088Z,0.00
2023-04-22T03:47:39.130Z,0.00
2023-04-22T03:48:39.071Z,0.00
2023-04-22T03:49:40.027Z,4.00
2023-04-22T03:50:39.747Z,0.00
2023-04-22T03:51:39.736Z,0.00
2023-04-22T03:52:39.994Z,0.00
2023-04-22T03:53:39.004Z,4.00
2023-04-22T03:54:39.702Z,0.00
2023-04-22T03:55:39.685Z,4.00
2023-04-22T03:56:39.689Z,4.00
2023-04-22T03:57:39.006Z,4.00
2023-04-22T03:58:39.652Z,4.00
2023-04-22T03:59:39.209Z,4.00
2023-04-22T04:00:38.937Z,4.00
2023-04-22T04:01:38.919Z,8.00
2023-04-22T04:02:39.159Z,8.00
2023-04-22T04:03:39.159Z,8.00
2023-04-22T04:04:39.854Z,12.00
2023-04-22T04:05:39.756Z,8.00
2023-04-22T04:06:38.906Z,12.00
2023-04-22T04:07:38.898Z,12.00
2023-04-22T04:08:39.548Z,16.00
2023-04-22T04:09:39.076Z,16.00
2023-04-22T04:10:39.525Z,20.00
2023-04-22T04:11:39.534Z,24.00
2023-04-22T04:12:39.483Z,28.00
2023-04-22T04:13:39.504Z,32.00
2023-04-22T04:14:39.481Z,36.00
2023-04-22T04:15:38.839Z,40.00
2023-04-22T04:16:38.788Z,40.00
2023-04-22T04:17:38.846Z,48.00
2023-04-22T04:18:39.452Z,52.00
2023-04-22T04:19:39.092Z,56.00
2023-04-22T04:20:38.741Z,60.00
2023-04-22T04:21:39.389Z,64.00
2023-04-22T04:22:38.711Z,72.00
2023-04-22T04:23:38.694Z,76.00
2023-04-22T04:24:38.670Z,80.00
2023-04-22T04:25:39.387Z,88.00
2023-04-22T04:26:38.678Z,92.00
2023-04-22T04:27:38.664Z,100.00
2023-04-22T04:28:38.643Z,108.00
2023-04-22T04:29:38.947Z,116.00
2023-04-22T04:30:38.638Z,128.00
2023-04-22T04:31:38.710Z,128.00
2023-04-22T04:32:38.617Z,132.00
2023-04-22T04:33:38.581Z,136.00
2023-04-22T04:34:39.271Z,128.00
2023-04-22T04:35:39.247Z,128.00
2023-04-22T04:36:39.223Z,124.00
2023-04-22T04:37:39.229Z,128.00
2023-04-22T04:38:38.532Z,136.00
2023-04-22T04:39:38.814Z,144.00
2023-04-22T04:40:38.493Z,156.00
2023-04-22T04:41:39.174Z,168.00
2023-04-22T04:42:38.489Z,164.00
2023-04-22T04:43:38.459Z,176.00
2023-04-22T04:44:38.452Z,188.00
2023-04-22T04:45:39.143Z,196.00
2023-04-22T04:46:39.442Z,204.00
2023-04-22T04:47:39.189Z,208.00
2023-04-22T04:48:38.421Z,220.00
2023-04-22T04:49:38.594Z,232.00
2023-04-22T04:50:38.396Z,228.00
2023-04-22T04:51:39.045Z,244.00
2023-04-22T04:52:39.048Z,256.00
2023-04-22T04:53:38.353Z,256.00
2023-04-22T04:54:38.360Z,260.00
2023-04-22T04:55:39.024Z,272.00
2023-04-22T04:56:38.320Z,276.00
2023-04-22T04:57:39.282Z,296.00
2023-04-22T04:58:38.998Z,304.00
2023-04-22T04:59:39.292Z,320.00
2023-04-22T05:00:38.279Z,328.00
2023-04-22T05:01:38.299Z,344.00
2023-04-22T05:02:39.052Z,352.00
2023-04-22T05:03:38.473Z,368.00
2023-04-22T05:04:38.342Z,388.00
2023-04-22T05:05:38.232Z,408.00
2023-04-22T05:06:38.926Z,408.00
2023-04-22T05:07:38.241Z,424.00
2023-04-22T05:08:38.927Z,448.00
2023-04-22T05:09:39.119Z,448.00
2023-04-22T05:10:38.869Z,460.00
2023-04-22T05:11:38.172Z,492.00
2023-04-22T05:12:38.820Z,492.00
2023-04-22T05:13:38.151Z,516.00
2023-04-22T05:14:38.826Z,556.00
2023-04-22T05:15:38.812Z,552.00
2023-04-22T05:16:38.189Z,600.00
2023-04-22T05:17:38.789Z,588.00
2023-04-22T05:18:38.781Z,612.00
2023-04-22T05:19:39.010Z,628.00
2023-04-22T05:20:38.080Z,628.00
2023-04-22T05:21:38.749Z,628.00
2023-04-22T05:22:38.066Z,660.00
2023-04-22T05:23:38.043Z,624.00
2023-04-22T05:24:38.738Z,648.00
2023-04-22T05:25:38.701Z,680.00
2023-04-22T05:26:38.693Z,708.00
2023-04-22T05:27:38.032Z,704.00
2023-04-22T05:28:37.987Z,740.00
2023-04-22T05:29:38.469Z,780.00
2023-04-22T05:30:38.654Z,812.00
2023-04-22T05:31:38.724Z,824.00
2023-04-22T05:32:37.966Z,828.00
2023-04-22T05:33:38.796Z,840.00
2023-04-22T05:34:38.609Z,848.00
2023-04-22T05:35:37.927Z,848.00
2023-04-22T05:36:37.910Z,884.00
2023-04-22T05:37:38.703Z,896.00
2023-04-22T05:38:38.025Z,904.00
2023-04-22T05:39:38.051Z,912.00
2023-04-22T05:40:37.858Z,916.00
2023-04-22T05:41:38.532Z,924.00
2023-04-22T05:42:38.274Z,928.00
2023-04-22T05:43:38.126Z,936.00
2023-04-22T05:44:38.800Z,964.00
2023-04-22T05:45:37.820Z,996.00
2023-04-22T05:46:38.453Z,1012.00
2023-04-22T05:47:38.484Z,0.00
2023-04-22T05:48:37.872Z,0.00
2023-04-22T05:49:38.775Z,0.00
2023-04-22T05:51:38.871Z,0.00
2023-04-22T05:52:38.443Z,0.00
2023-04-22T05:53:38.467Z,0.00
2023-04-22T05:54:38.400Z,0.00
2023-04-22T05:55:38.454Z,0.00
2023-04-22T05:56:38.449Z,0.00
2023-04-22T05:57:39.026Z,0.00
2023-04-22T05:58:37.837Z,0.00
2023-04-22T05:59:37.784Z,0.00
2023-04-22T06:00:38.324Z,0.00
2023-04-22T06:01:38.057Z,0.00
2023-04-22T06:02:37.969Z,0.00
2023-04-22T06:03:38.023Z,0.00
2023-04-22T06:04:38.321Z,0.00
2023-04-22T06:05:37.674Z,0.00
2023-04-22T06:06:37.576Z,0.00
2023-04-22T06:07:37.575Z,0.00
2023-04-22T06:08:37.547Z,0.00
2023-04-22T06:09:38.406Z,0.00
2023-04-22T06:10:37.536Z,0.00
2023-04-22T06:11:37.534Z,0.00
2023-04-22T06:12:37.536Z,0.00
2023-04-22T06:13:38.187Z,0.00
2023-04-22T06:14:37.501Z,0.00
2023-04-22T06:15:38.202Z,0.00
2023-04-22T06:16:38.153Z,0.00
2023-04-22T06:17:37.492Z,0.00
2023-04-22T06:18:38.577Z,0.00
2023-04-22T06:19:37.597Z,0.00
2023-04-22T06:20:38.104Z,0.00
2023-04-22T06:21:37.412Z,0.00
2023-04-22T06:22:37.416Z,0.00
2023-04-22T06:23:38.075Z,0.00
2023-04-22T06:24:37.376Z,0.00
2023-04-22T06:25:37.374Z,0.00
2023-04-22T06:26:38.043Z,0.00
2023-04-22T06:27:38.016Z,0.00
2023-04-22T06:28:37.381Z,0.00
2023-04-22T06:29:37.539Z,0.00
2023-04-22T06:30:37.308Z,0.00
2023-04-22T06:31:37.327Z,0.00
2023-04-22T06:32:37.329Z,0.00
2023-04-22T06:33:37.386Z,0.00
2023-04-22T06:34:37.255Z,0.00
2023-04-22T06:35:37.953Z,0.00
2023-04-22T06:36:37.984Z,0.00
2023-04-22T06:37:37.917Z,0.00
2023-04-22T06:38:37.372Z,0.00
2023-04-22T06:39:37.417Z,0.00
2023-04-22T06:40:37.887Z,0.00
2023-04-22T06:41:38.223Z,0.00
2023-04-22T06:42:37.310Z,0.00
2023-04-22T06:43:37.179Z,0.00
2023-04-22T06:44:37.912Z,0.00
2023-04-22T06:45:37.148Z,0.00
2023-04-22T06:46:37.216Z,0.00
2023-04-22T06:47:37.872Z,0.00
2023-04-22T06:48:37.122Z,0.00
2023-04-22T06:49:37.351Z,0.00
2023-04-22T06:50:37.788Z,0.00
2023-04-22T06:51:37.747Z,0.00
2023-04-22T06:52:37.769Z,0.00
2023-04-22T06:53:37.746Z,0.00
2023-04-22T06:54:37.039Z,0.00
2023-04-22T06:55:37.024Z,0.00
2023-04-22T06:56:37.684Z,0.00
2023-04-22T06:57:38.053Z,0.00
2023-04-22T06:58:36.991Z,0.00
2023-04-22T06:59:37.921Z,0.00
2023-04-22T07:00:37.006Z,0.00
2023-04-22T07:01:37.043Z,0.00
2023-04-22T07:02:37.751Z,0.00
2023-04-22T07:03:37.759Z,0.00
2023-04-22T07:04:37.692Z,0.00
2023-04-22T07:05:39.564Z,0.00
2023-04-22T07:06:36.928Z,0.00
2023-04-22T07:07:37.595Z,0.00
2023-04-22T07:08:37.590Z,0.00
2023-04-22T07:09:37.949Z,0.00
2023-04-22T07:10:37.565Z,0.00
2023-04-22T07:11:37.541Z,0.00
2023-04-22T07:12:37.536Z,0.00
2023-04-22T07:13:37.531Z,0.00
2023-04-22T07:14:37.510Z,0.00
2023-04-22T07:15:36.871Z,0.00
2023-04-22T07:16:36.898Z,0.00
2023-04-22T07:17:36.844Z,0.00
2023-04-22T07:18:36.818Z,0.00
2023-04-22T07:19:36.937Z,0.00
2023-04-22T07:20:36.754Z,0.00
2023-04-22T07:21:36.768Z,0.00
2023-04-22T07:22:37.426Z,0.00
2023-04-22T07:23:37.407Z,0.00
2023-04-22T07:24:37.397Z,0.00
2023-04-22T07:25:36.710Z,0.00
2023-04-22T07:26:37.360Z,0.00
2023-04-22T07:27:37.631Z,0.00
2023-04-22T07:28:36.662Z,0.00
2023-04-22T07:29:37.554Z,0.00
2023-04-22T07:30:37.329Z,0.00
2023-04-22T07:31:37.352Z,0.00
2023-04-22T07:32:37.329Z,0.00
2023-04-22T07:33:37.569Z,0.00
2023-04-22T07:34:37.291Z,0.00
2023-04-22T07:35:37.576Z,0.00
2023-04-22T07:36:37.248Z,0.00
2023-04-22T07:37:37.257Z,0.00
2023-04-22T07:38:37.241Z,0.00
2023-04-22T07:39:37.847Z,0.00
2023-04-22T07:40:37.506Z,0.00
2023-04-22T07:41:37.492Z,0.00
2023-04-22T07:42:37.465Z,0.00
2023-04-22T07:43:37.489Z,0.00
2023-04-22T07:44:39.433Z,0.00
2023-04-22T07:45:37.480Z,0.00
2023-04-22T07:46:37.160Z,0.00
2023-04-22T07:47:37.193Z,0.00
2023-04-22T07:48:37.400Z,0.00
2023-04-22T07:49:37.561Z,0.00
2023-04-22T07:50:38.815Z,0.00
2023-04-22T07:51:37.414Z,0.00
2023-04-22T07:52:37.360Z,0.00
2023-04-22T07:53:37.383Z,0.00
2023-04-22T07:54:37.336Z,0.00
2023-04-22T07:55:37.320Z,0.00
2023-04-22T07:56:37.027Z,0.00
2023-04-22T07:57:37.306Z,0.00
2023-04-22T07:58:37.313Z,0.00
2023-04-22T07:59:37.414Z,0.00
2023-04-22T08:00:37.056Z,0.00
2023-04-22T08:01:37.293Z,0.00
2023-04-22T08:02:37.345Z,0.00
2023-04-22T08:03:37.471Z,0.00
2023-04-22T08:04:37.282Z,0.00
2023-04-22T08:05:36.959Z,0.00
2023-04-22T08:06:37.220Z,0.00
2023-04-22T08:07:37.183Z,0.00
2023-04-22T08:08:37.174Z,0.00
2023-04-22T08:09:37.138Z,0.00
2023-04-22T08:10:37.153Z,0.00
2023-04-22T08:11:37.174Z,0.00
2023-04-22T08:12:37.138Z,0.00
2023-04-22T08:13:36.870Z,0.00
2023-04-22T08:14:37.117Z,0.00
2023-04-22T08:15:36.880Z,0.00
2023-04-22T08:16:37.138Z,0.00
2023-04-22T08:17:37.117Z,0.00
2023-04-22T08:18:36.813Z,0.00
2023-04-22T08:19:36.954Z,0.00
2023-04-22T08:20:37.061Z,0.00
2023-04-22T08:21:37.062Z,0.00
2023-04-22T08:22:37.050Z,0.00
2023-04-22T08:23:37.030Z,0.00
2023-04-22T08:24:36.755Z,0.00
2023-04-22T08:25:37.015Z,0.00
2023-04-22T08:26:36.717Z,0.00
2023-04-22T08:27:36.988Z,0.00
2023-04-22T08:28:36.974Z,0.00
2023-04-22T08:29:36.720Z,0.00
2023-04-22T08:30:36.711Z,0.00
2023-04-22T08:31:37.015Z,0.00
2023-04-22T08:32:36.691Z,0.00
2023-04-22T08:33:36.929Z,0.00
2023-04-22T08:34:37.352Z,0.00
2023-04-22T08:35:36.642Z,0.00
2023-04-22T08:36:36.920Z,0.00
2023-04-22T08:37:36.611Z,0.00
2023-04-22T08:38:36.874Z,0.00
2023-04-22T08:39:37.039Z,0.00
2023-04-22T08:40:36.840Z,0.00
2023-04-22T08:41:36.847Z,0.00
2023-04-22T08:42:36.834Z,0.00
2023-04-22T08:43:36.574Z,0.00
2023-04-22T08:44:36.805Z,0.00
2023-04-22T08:45:36.808Z,0.00
2023-04-22T08:46:36.852Z,0.00
2023-04-22T08:47:36.526Z,0.00
2023-04-22T08:48:36.490Z,0.00
2023-04-22T08:49:36.751Z,0.00
2023-04-22T08:50:36.471Z,0.00
2023-04-22T08:51:36.461Z,0.00
2023-04-22T08:52:36.453Z,0.00
2023-04-22T08:53:36.704Z,0.00
2023-04-22T08:54:36.685Z,0.00
2023-04-22T08:55:36.436Z,0.00
2023-04-22T08:56:36.682Z,0.00
2023-04-22T08:57:36.664Z,0.00
2023-04-22T08:58:36.662Z,0.00
2023-04-22T08:59:36.703Z,0.00
2023-04-22T09:00:36.390Z,0.00
2023-04-22T09:01:36.383Z,0.00
2023-04-22T09:02:36.644Z,0.00
2023-04-22T09:03:36.658Z,0.00
2023-04-22T09:04:36.742Z,0.00
2023-04-22T09:05:36.306Z,0.00
2023-04-22T09:06:36.591Z,0.00
2023-04-22T09:07:36.549Z,0.00
2023-04-22T09:08:36.552Z,0.00
2023-04-22T09:09:36.618Z,0.00
2023-04-22T09:10:36.252Z,0.00
2023-04-22T09:11:36.518Z,0.00
2023-04-22T09:12:36.476Z,0.00
2023-04-22T09:13:36.240Z,0.00
2023-04-22T09:14:36.472Z,0.00
2023-04-22T09:15:36.204Z,0.00
2023-04-22T09:16:36.246Z,0.00
2023-04-22T09:17:36.207Z,0.00
2023-04-22T09:18:36.168Z,0.00
2023-04-22T09:19:36.570Z,0.00
2023-04-22T09:20:36.386Z,0.00
2023-04-22T09:21:36.409Z,0.00
2023-04-22T09:22:36.383Z,0.00
2023-04-22T09:23:36.372Z,0.00
2023-04-22T09:24:36.391Z,0.00
2023-04-22T09:25:36.335Z,0.00
2023-04-22T09:26:36.346Z,0.00
2023-04-22T09:27:36.067Z,0.00
2023-04-22T09:28:36.066Z,0.00
2023-04-22T09:29:36.157Z,0.00
2023-04-22T09:30:36.037Z,0.00
2023-04-22T09:31:35.383Z,0.00
2023-04-22T09:32:37.317Z,0.00
2023-04-22T09:33:35.327Z,0.00
2023-04-22T09:34:37.522Z,0.00
2023-04-22T09:35:37.238Z,0.00
2023-04-22T09:36:37.257Z,0.00
2023-04-22T09:37:48.529Z,0.00
2023-04-22T09:38:37.726Z,0.00
2023-04-22T09:39:37.398Z,0.00
2023-04-22T09:40:37.177Z,0.00
2023-04-22T09:41:37.187Z,0.00
2023-04-22T09:42:37.176Z,0.00
2023-04-22T09:43:35.893Z,0.00
2023-04-22T09:44:37.162Z,0.00
2023-04-22T09:45:37.185Z,0.00
2023-04-22T09:46:37.176Z,0.00
2023-04-22T09:47:35.914Z,0.00
2023-04-22T09:48:37.139Z,0.00
2023-04-22T09:49:37.434Z,0.00
2023-04-22T09:50:37.083Z,0.00
2023-04-22T09:51:37.082Z,0.00
2023-04-22T09:52:37.055Z,0.00
2023-04-22T09:53:37.049Z,0.00
2023-04-22T09:54:37.027Z,0.00
2023-04-22T09:55:37.024Z,0.00
2023-04-22T09:56:36.034Z,0.00
2023-04-22T09:57:36.996Z,0.00
2023-04-22T09:58:36.983Z,0.00
2023-04-22T09:59:37.006Z,0.00
2023-04-22T10:00:35.966Z,0.00
2023-04-22T10:01:37.065Z,0.00
2023-04-22T10:02:37.067Z,0.00
2023-04-22T10:03:36.994Z,0.00
2023-04-22T10:04:36.044Z,0.00
2023-04-22T10:05:36.950Z,0.00
2023-04-22T10:06:36.420Z,0.00
2023-04-22T10:07:35.660Z,0.00
2023-04-22T10:08:35.629Z,0.00
2023-04-22T10:09:35.623Z,0.00
2023-04-22T10:10:35.605Z,0.00
2023-04-22T10:11:35.576Z,0.00
2023-04-22T10:12:35.974Z,0.00
2023-04-22T10:13:34.922Z,0.00
2023-04-22T10:14:35.565Z,0.00
2023-04-22T10:15:35.551Z,0.00
2023-04-22T10:16:36.877Z,0.00
2023-04-22T10:17:34.855Z,0.00
2023-04-22T10:18:35.790Z,0.00
2023-04-22T10:19:35.767Z,0.00
2023-04-22T10:20:36.762Z,0.00
2023-04-22T10:21:35.463Z,0.00
2023-04-22T10:22:35.472Z,0.00
2023-04-22T10:23:34.777Z,0.00
2023-04-22T10:24:34.760Z,0.00
2023-04-22T10:25:34.749Z,0.00
2023-04-22T10:26:35.414Z,0.00
2023-04-22T10:27:35.413Z,0.00
2023-04-22T10:28:35.413Z,0.00
2023-04-22T10:29:35.660Z,0.00
2023-04-22T10:30:34.698Z,0.00
2023-04-22T10:31:35.678Z,0.00
2023-04-22T10:32:36.641Z,0.00
2023-04-22T10:33:36.615Z,0.00
2023-04-22T10:34:35.344Z,0.00
2023-04-22T10:35:34.646Z,0.00
2023-04-22T10:36:35.305Z,0.00
2023-04-22T10:37:35.314Z,0.00
2023-04-22T10:38:35.296Z,0.00
2023-04-22T10:39:35.291Z,0.00
2023-04-22T10:40:35.256Z,0.00
2023-04-22T10:41:35.293Z,0.00
2023-04-22T10:42:35.522Z,0.00
2023-04-22T10:43:35.247Z,0.00
2023-04-22T10:44:35.398Z,0.00
2023-04-22T10:45:36.495Z,0.00
2023-04-22T10:46:34.922Z,0.00
2023-04-22T10:47:35.257Z,0.00
2023-04-22T10:48:35.189Z,0.00
2023-04-22T10:49:34.490Z,0.00
2023-04-22T10:50:35.149Z,0.00
2023-04-22T10:51:35.172Z,0.00
2023-04-22T10:52:35.167Z,0.00
2023-04-22T10:53:34.444Z,0.00
2023-04-22T10:54:34.437Z,0.00
2023-04-22T10:55:35.093Z,0.00
2023-04-22T10:56:36.289Z,0.00
2023-04-22T10:57:35.095Z,0.00
2023-04-22T10:58:35.092Z,0.00
2023-04-22T10:59:35.073Z,0.00
2023-04-22T11:00:45.929Z,0.00
2023-04-22T11:01:36.058Z,0.00
2023-04-22T11:02:35.110Z,0.00
2023-04-22T11:03:34.629Z,0.00
2023-04-22T11:04:34.371Z,0.00
2023-04-22T11:05:34.336Z,0.00
2023-04-22T11:06:34.994Z,0.00
2023-04-22T11:07:34.987Z,0.00
2023-04-22T11:08:34.970Z,0.00
2023-04-22T11:09:35.177Z,0.00
2023-04-22T11:10:34.278Z,0.00
2023-04-22T11:11:36.201Z,0.00
2023-04-22T11:12:34.244Z,0.00
2023-04-22T11:13:34.241Z,0.00
2023-04-22T11:14:34.236Z,0.00
2023-04-22T11:15:34.245Z,0.00
2023-04-22T11:16:34.272Z,0.00
2023-04-22T11:17:34.186Z,0.00
2023-04-22T11:18:34.869Z,0.00
2023-04-22T11:19:34.858Z,0.00
2023-04-22T11:20:34.183Z,0.00
2023-04-22T11:21:35.092Z,0.00
2023-04-22T11:22:34.821Z,0.00
2023-04-22T11:23:34.812Z,0.00
2023-04-22T11:24:34.795Z,0.00
2023-04-22T11:25:34.111Z,0.00
2023-04-22T11:26:35.580Z,0.00
2023-04-22T11:27:34.765Z,0.00
2023-04-22T11:28:34.105Z,0.00
2023-04-22T11:29:34.750Z,0.00
2023-04-22T11:30:34.056Z,0.00
2023-04-22T11:31:34.741Z,0.00
2023-04-22T11:32:34.041Z,0.00
2023-04-22T11:33:34.030Z,0.00
2023-04-22T11:34:34.688Z,0.00
2023-04-22T11:35:34.663Z,0.00
2023-04-22T11:36:34.663Z,0.00
2023-04-22T11:37:33.979Z,0.00
2023-04-22T11:38:34.644Z,0.00
2023-04-22T11:39:33.961Z,0.00
2023-04-22T11:40:37.843Z,0.00
2023-04-22T11:41:34.855Z,0.00
2023-04-22T11:42:33.923Z,0.00
2023-04-22T11:43:33.877Z,0.00
2023-04-22T11:44:34.581Z,0.00
2023-04-22T11:45:34.592Z,0.00
2023-04-22T11:46:34.654Z,0.00
2023-04-22T11:47:34.603Z,0.00
2023-04-22T11:48:33.859Z,0.00
2023-04-22T11:49:34.529Z,0.00
2023-04-22T11:50:34.515Z,0.00
2023-04-22T11:51:33.835Z,0.00
2023-04-22T11:52:33.804Z,0.00
2023-04-22T11:53:34.481Z,0.00
2023-04-22T11:54:34.487Z,0.00
2023-04-22T11:55:33.779Z,0.00
2023-04-22T11:56:34.432Z,0.00
2023-04-22T11:57:34.440Z,0.00
2023-04-22T11:58:33.746Z,0.00
2023-04-22T11:59:34.423Z,0.00
2023-04-22T12:00:34.418Z,0.00
2023-04-22T12:01:34.392Z,0.00
2023-04-22T12:02:34.485Z,0.00
2023-04-22T12:03:34.468Z,0.00
2023-04-22T12:04:33.659Z,0.00
2023-04-22T12:05:33.711Z,0.00
2023-04-22T12:06:33.669Z,0.00
2023-04-22T12:07:33.647Z,0.00
2023-04-22T12:08:34.314Z,0.00
2023-04-22T12:09:33.616Z,0.00
2023-04-22T12:10:34.294Z,0.00
2023-04-22T12:11:34.265Z,0.00
2023-04-22T12:12:34.272Z,0.00
2023-04-22T12:13:33.580Z,0.00
2023-04-22T12:14:34.253Z,0.00
2023-04-22T12:15:34.240Z,0.00
2023-04-22T12:16:34.272Z,0.00
2023-04-22T12:17:34.244Z,0.00
2023-04-22T12:18:33.513Z,0.00
2023-04-22T12:19:33.508Z,0.00
2023-04-22T12:20:33.525Z,0.00
2023-04-22T12:21:34.172Z,0.00
2023-04-22T12:22:33.481Z,0.00
2023-04-22T12:23:34.150Z,0.00
2023-04-22T12:24:33.470Z,0.00
2023-04-22T12:25:33.489Z,0.00
2023-04-22T12:26:35.387Z,0.00
2023-04-22T12:27:33.417Z,0.00
2023-04-22T12:28:34.122Z,0.00
2023-04-22T12:29:34.115Z,0.00
2023-04-22T12:30:34.063Z,0.00
2023-04-22T12:31:34.220Z,0.00
2023-04-22T12:32:35.314Z,0.00
2023-04-22T12:33:34.085Z,0.00
2023-04-22T12:34:34.034Z,0.00
2023-04-22T12:35:33.349Z,0.00
2023-04-22T12:36:33.347Z,0.00
2023-04-22T12:37:34.009Z,0.00
2023-04-22T12:38:33.999Z,0.00
2023-04-22T12:39:33.294Z,0.00
2023-04-22T12:40:33.957Z,0.00
2023-04-22T12:41:33.273Z,0.00
2023-04-22T12:42:33.275Z,0.00
2023-04-22T12:43:33.262Z,0.00
2023-04-22T12:44:33.929Z,0.00
2023-04-22T12:45:33.905Z,0.00
2023-04-22T12:46:34.158Z,0.00
2023-04-22T12:47:33.232Z,0.00
2023-04-22T12:48:33.895Z,0.00
2023-04-22T12:49:33.174Z,0.00
2023-04-22T12:50:33.855Z,0.00
2023-04-22T12:51:33.864Z,0.00
2023-04-22T12:52:33.170Z,0.00
2023-04-22T12:53:33.837Z,0.00
2023-04-22T12:54:33.132Z,0.00
2023-04-22T12:55:33.192Z,0.00
2023-04-22T12:56:33.807Z,0.00
2023-04-22T12:57:33.140Z,0.00
2023-04-22T12:58:33.794Z,0.00
2023-04-22T12:59:33.768Z,0.00
2023-04-22T13:00:33.114Z,0.00
2023-04-22T13:01:35.282Z,0.00
2023-04-22T13:02:33.826Z,0.00
2023-04-22T13:03:33.852Z,0.00
2023-04-22T13:04:33.090Z,0.00
2023-04-22T13:05:33.692Z,0.00
2023-04-22T13:06:33.036Z,0.00
2023-04-22T13:07:33.680Z,0.00
2023-04-22T13:08:33.668Z,0.00
2023-04-22T13:09:33.924Z,0.00
2023-04-22T13:10:33.640Z,0.00
2023-04-22T13:11:32.954Z,0.00
2023-04-22T13:12:36.293Z,0.00
2023-04-22T13:13:33.624Z,0.00